createdAt,value
2017-05-30T00:02:46.514Z,0
2017-05-30T00:12:55.194Z,0
2017-05-30T00:23:03.853Z,0
2017-05-30T00:33:12.513Z,0
2017-05-30T00:43:21.274Z,0
2017-05-30T00:53:30.090Z,0
2017-05-30T01:03:38.987Z,0
2017-05-30T01:13:47.924Z,0
2017-05-30T01:23:56.888Z,0
2017-05-30T01:34:05.874Z,0
2017-05-30T01:44:14.849Z,0
2017-05-30T01:54:23.868Z,0
2017-05-30T02:04:32.869Z,0
2017-05-30T02:14:41.919Z,0
2017-05-30T02:24:51.017Z,0
2017-05-30T02:35:00.105Z,0
2017-05-30T02:45:09.194Z,0
2017-05-30T02:55:18.376Z,0
2017-05-30T03:05:27.373Z,0
2017-05-30T03:15:36.483Z,5
2017-05-30T03:25:45.690Z,10
2017-05-30T03:35:54.848Z,25
2017-05-30T03:46:03.919Z,35
2017-05-30T03:56:13.003Z,40
2017-05-30T04:06:22.094Z,55
2017-05-30T04:16:31.175Z,65
2017-05-30T04:26:40.143Z,95
2017-05-30T04:36:49.112Z,170
2017-05-30T04:46:57.984Z,190
2017-05-30T04:57:06.815Z,210
2017-05-30T05:07:15.615Z,295
2017-05-30T05:17:24.284Z,390
2017-05-30T05:27:32.816Z,450
2017-05-30T05:37:41.133Z,620
2017-05-30T05:47:49.347Z,490
2017-05-30T05:57:57.554Z,715
2017-05-30T06:08:05.781Z,810
2017-05-30T06:18:13.687Z,850
2017-05-30T06:28:21.727Z,940
2017-05-30T06:38:29.785Z,1130
2017-05-30T06:48:37.706Z,830
2017-05-30T06:58:45.577Z,595
2017-05-30T07:08:53.642Z,755
2017-05-30T07:19:01.825Z,1095
2017-05-30T07:29:09.983Z,2010
2017-05-30T07:39:17.876Z,1895
2017-05-30T07:49:25.547Z,1725
2017-05-30T07:59:33.149Z,2050
2017-05-30T08:09:40.745Z,2055
2017-05-30T08:19:48.161Z,2375
2017-05-30T08:29:55.564Z,2525
2017-05-30T08:40:02.882Z,2370
2017-05-30T08:50:10.143Z,2720
2017-05-30T09:00:17.444Z,2815
2017-05-30T09:10:24.628Z,3020
2017-05-30T09:20:31.739Z,1105
2017-05-30T09:30:38.854Z,1320
2017-05-30T09:40:46.150Z,1950
2017-05-30T09:50:53.526Z,3110
2017-05-30T10:01:00.776Z,1720
2017-05-30T10:11:07.872Z,1465
2017-05-30T10:21:14.857Z,1450
2017-05-30T10:31:21.918Z,1080
2017-05-30T10:41:29.115Z,3575
2017-05-30T10:51:36.247Z,3655
2017-05-30T11:01:43.289Z,1300
2017-05-30T11:11:50.473Z,4095
2017-05-30T11:21:57.738Z,930
2017-05-30T11:32:05.201Z,550
2017-05-30T11:42:12.896Z,880
2017-05-30T11:52:20.626Z,750
2017-05-30T11:56:38.408Z,555
2017-05-30T11:57:08.480Z,525
2017-05-30T11:57:45.347Z,480
2017-05-30T12:07:53.324Z,275
2017-05-30T12:18:01.690Z,580
2017-05-30T12:28:09.949Z,690
2017-05-30T12:38:18.015Z,1185
2017-05-30T12:48:25.887Z,1350
2017-05-30T12:58:33.718Z,380
2017-05-30T13:08:41.865Z,360
2017-05-30T13:18:50.309Z,775
2017-05-30T13:28:58.685Z,735
2017-05-30T13:39:06.876Z,1085
2017-05-30T13:49:14.848Z,2655
2017-05-30T13:59:22.345Z,995
2017-05-30T14:09:29.796Z,2360
2017-05-30T14:29:44.637Z,980
2017-05-30T14:39:52.334Z,310
2017-05-30T14:50:00.258Z,480
2017-05-30T15:00:08.138Z,905
2017-05-30T15:10:15.941Z,600
2017-05-30T15:20:23.876Z,1315
2017-05-30T15:30:31.730Z,690
2017-05-30T15:40:39.386Z,810
2017-05-30T15:50:47.042Z,510
2017-05-30T16:00:55.027Z,295
2017-05-30T16:11:03.069Z,745
2017-05-30T16:21:10.923Z,430
2017-05-30T16:31:18.939Z,205
2017-05-30T16:41:27.040Z,210
2017-05-30T16:51:35.327Z,660
2017-05-30T17:01:43.351Z,440
2017-05-30T17:11:51.564Z,465
2017-05-30T17:21:59.779Z,295
2017-05-30T17:32:08.082Z,380
2017-05-30T17:42:16.348Z,245
2017-05-30T17:52:24.633Z,435
2017-05-30T18:02:32.902Z,235
2017-05-30T18:12:41.306Z,225
2017-05-30T18:22:49.776Z,235
2017-05-30T18:32:58.250Z,115
2017-05-30T18:43:06.864Z,40
2017-05-30T18:53:15.586Z,50
2017-05-30T19:03:24.327Z,35
2017-05-30T19:13:33.156Z,35
2017-05-30T19:23:41.992Z,25
2017-05-30T19:33:50.900Z,15
2017-05-30T19:43:59.851Z,5
2017-05-30T19:54:08.894Z,0
2017-05-30T20:04:18.046Z,0
2017-05-30T20:14:27.269Z,0
2017-05-30T20:24:36.578Z,0
2017-05-30T20:34:45.877Z,0
2017-05-30T20:44:55.181Z,0
2017-05-30T20:55:04.453Z,0
2017-05-30T21:05:13.715Z,0
2017-05-30T21:15:23.084Z,0
2017-05-30T21:25:32.352Z,0
2017-05-30T21:35:41.688Z,0
2017-05-30T21:45:51.002Z,0
2017-05-30T21:56:00.305Z,0
2017-05-30T22:06:09.724Z,0
2017-05-30T22:16:19.199Z,0
2017-05-30T22:26:28.662Z,0
2017-05-30T22:36:38.126Z,0
2017-05-30T22:46:47.584Z,0
2017-05-30T22:56:57.063Z,0
2017-05-30T23:07:06.531Z,0
2017-05-30T23:17:16.047Z,0
2017-05-30T23:27:25.534Z,0
2017-05-30T23:37:35.059Z,0
2017-05-30T23:47:44.567Z,0
2017-05-30T23:57:54.122Z,0
